Karina — WDE7823 — position and weather

sailwx.info

Track history (hours):
 
Tides and Currents Weather Stations Pressure Air Temp Water Temp Dewpoint Dewpoint Depression Visibility Wind Speed Wind Dir Waves Ship Positions

Karina

Owner: Karina, LLC, Cape May Court House, NJ. More information available from US FCC via Universal Licensing System and Coast Guard Vessel Documentation Center.

Last reported at 2016-Jun-19 02:32 UTC. Time now 2016-Jun-26 01:05 UTC.
Position N 40°07' W 072°43'.

Length 21 m.

Type: Pleasure craft. MMSI: 367398120.

Date/timePositionNaut miles runAvg speedWind from/ knotsBaromVisibWave heightAir tempDewpointWater temp
2016-Jun-19 02:32N 40°07' W 072°43'1 0.2
2016-Jun-18 23:14N 40°07' W 072°44'0 0.5
2016-Jun-18 22:25N 40°07' W 072°44'2 0.1
2016-Jun-18 10:10N 40°06' W 072°46'2 0.7
2016-Jun-18 07:25N 40°07' W 072°44'1 0.6
2016-Jun-18 06:12N 40°08' W 072°43'  
2016-Jun-14 04:10N 39°42' W 073°54'  
2016-Jun-10 16:31N 38°58' W 074°53'0 0.0
2016-Jun-10 15:31N 38°58' W 074°53'0 0.0
2016-Jun-10 14:19N 38°58' W 074°53'0 0.0
2016-Jun-10 12:20N 38°58' W 074°53'0 0.0
2016-Jun-10 11:32N 38°58' W 074°53'0 0.0
2016-Jun-10 10:32N 38°58' W 074°53'0 0.0
2016-Jun-10 09:33N 38°58' W 074°53'0 0.0
2016-Jun-10 08:32N 38°58' W 074°53'0 0.0
2016-Jun-10 07:33N 38°58' W 074°53'0 0.0
2016-Jun-10 06:33N 38°58' W 074°53'0 0.0
2016-Jun-10 05:33N 38°58' W 074°53'0 0.0
2016-Jun-10 04:33N 38°58' W 074°53'0 0.0
2016-Jun-10 03:33N 38°58' W 074°53'0 0.0
2016-Jun-10 02:33N 38°58' W 074°53'0 0.0
2016-Jun-10 01:33N 38°58' W 074°53'0 0.0
2016-Jun-10 00:33N 38°58' W 074°53'0 0.0
2016-Jun-09 23:33N 38°58' W 074°53'0 0.0
2016-Jun-09 22:33N 38°58' W 074°53'0 0.0
2016-Jun-09 21:33N 38°58' W 074°53'0 0.0
2016-Jun-09 20:33N 38°58' W 074°53'0 0.0
2016-Jun-09 19:33N 38°58' W 074°53'0 0.0
2016-Jun-09 18:33N 38°58' W 074°53'  
Track history (hours):
 
Tides and Currents Weather Stations Pressure Air Temp Water Temp Dewpoint Dewpoint Depression Visibility Wind Speed Wind Dir Waves Ship Positions

Karina

Owner: Karina, LLC, Cape May Court House, NJ. More information available from US FCC via Universal Licensing System and Coast Guard Vessel Documentation Center.

Last reported at 2016-Jun-19 02:32 UTC. Time now 2016-Jun-26 01:05 UTC.
Position N 40°07' W 072°43'.

Length 21 m.

Type: Pleasure craft. MMSI: 367398120.

Date/timePositionNaut miles runAvg speedWind from/ knotsBaromVisibWave heightAir tempDewpointWater temp
2016-Jun-19 02:32N 40°07' W 072°43'1 0.2
2016-Jun-18 23:14N 40°07' W 072°44'0 0.5
2016-Jun-18 22:25N 40°07' W 072°44'2 0.1
2016-Jun-18 10:10N 40°06' W 072°46'2 0.7
2016-Jun-18 07:25N 40°07' W 072°44'1 0.6
2016-Jun-18 06:12N 40°08' W 072°43'  
2016-Jun-14 04:10N 39°42' W 073°54'  
2016-Jun-10 16:31N 38°58' W 074°53'0 0.0
2016-Jun-10 15:31N 38°58' W 074°53'0 0.0
2016-Jun-10 14:19N 38°58' W 074°53'0 0.0
2016-Jun-10 12:20N 38°58' W 074°53'0 0.0
2016-Jun-10 11:32N 38°58' W 074°53'0 0.0
2016-Jun-10 10:32N 38°58' W 074°53'0 0.0
2016-Jun-10 09:33N 38°58' W 074°53'0 0.0
2016-Jun-10 08:32N 38°58' W 074°53'0 0.0
2016-Jun-10 07:33N 38°58' W 074°53'0 0.0
2016-Jun-10 06:33N 38°58' W 074°53'0 0.0
2016-Jun-10 05:33N 38°58' W 074°53'0 0.0
2016-Jun-10 04:33N 38°58' W 074°53'0 0.0
2016-Jun-10 03:33N 38°58' W 074°53'0 0.0
2016-Jun-10 02:33N 38°58' W 074°53'0 0.0
2016-Jun-10 01:33N 38°58' W 074°53'0 0.0
2016-Jun-10 00:33N 38°58' W 074°53'0 0.0
2016-Jun-09 23:33N 38°58' W 074°53'0 0.0
2016-Jun-09 22:33N 38°58' W 074°53'0 0.0
2016-Jun-09 21:33N 38°58' W 074°53'0 0.0
2016-Jun-09 20:33N 38°58' W 074°53'0 0.0
2016-Jun-09 19:33N 38°58' W 074°53'0 0.0
2016-Jun-09 18:33N 38°58' W 074°53'  

Dump ship's entire track history